createdAt,value
2017-09-24T00:01:33.983Z,11.10
2017-09-24T00:04:03.173Z,11.10
2017-09-24T00:06:32.307Z,11.10
2017-09-24T00:09:00.683Z,11.10
2017-09-24T00:11:29.115Z,11.20
2017-09-24T00:13:57.500Z,11.20
2017-09-24T00:16:25.876Z,11.20
2017-09-24T00:18:54.281Z,11.10
2017-09-24T00:21:23.423Z,10.90
2017-09-24T00:23:51.802Z,10.90
2017-09-24T00:26:20.935Z,11.00
2017-09-24T00:28:50.098Z,11.00
2017-09-24T00:31:18.603Z,11.00
2017-09-24T00:33:47.058Z,10.90
2017-09-24T00:36:15.442Z,10.90
2017-09-24T00:38:43.829Z,11.00
2017-09-24T00:41:12.242Z,11.10
2017-09-24T00:43:41.392Z,11.30
2017-09-24T00:46:09.773Z,11.20
2017-09-24T00:48:38.286Z,11.30
2017-09-24T00:51:07.436Z,11.20
2017-09-24T00:53:35.836Z,11.30
2017-09-24T00:56:04.506Z,11.30
2017-09-24T00:58:32.930Z,11.30
2017-09-24T01:01:02.101Z,11.40
2017-09-24T01:03:30.707Z,11.40
2017-09-24T01:05:59.855Z,11.40
2017-09-24T01:08:28.771Z,11.40
2017-09-24T01:10:57.349Z,11.40
2017-09-24T01:13:26.326Z,11.40
2017-09-24T01:15:54.753Z,11.40
2017-09-24T01:18:24.104Z,11.40
2017-09-24T01:20:52.592Z,11.40
2017-09-24T01:23:21.067Z,11.40
2017-09-24T01:25:49.650Z,11.50
2017-09-24T01:28:18.183Z,11.40
2017-09-24T01:30:47.462Z,11.30
2017-09-24T01:33:15.973Z,11.30
2017-09-24T01:35:44.443Z,11.30
2017-09-24T01:38:13.748Z,11.40
2017-09-24T01:40:42.456Z,11.40
2017-09-24T01:43:10.868Z,11.40
2017-09-24T01:45:39.370Z,11.30
2017-09-24T01:48:07.849Z,11.20
2017-09-24T01:50:37.448Z,11.20
2017-09-24T01:53:06.686Z,11.10
2017-09-24T01:55:36.161Z,11.10
2017-09-24T01:58:05.698Z,11.10
2017-09-24T02:00:34.966Z,11.00
2017-09-24T02:03:05.024Z,10.80
2017-09-24T02:05:35.159Z,10.80
2017-09-24T02:08:04.385Z,10.80
2017-09-24T02:10:33.758Z,10.90
2017-09-24T02:13:02.714Z,10.90
2017-09-24T02:15:31.835Z,10.90
2017-09-24T02:18:01.322Z,10.90
2017-09-24T02:20:30.775Z,10.80
2017-09-24T02:22:59.817Z,10.80
2017-09-24T02:25:29.456Z,10.80
2017-09-24T02:27:59.329Z,10.80
2017-09-24T02:30:30.170Z,10.80
2017-09-24T02:33:00.159Z,10.70
2017-09-24T02:35:28.826Z,10.70
2017-09-24T02:37:57.259Z,10.70
2017-09-24T02:40:25.738Z,10.60
2017-09-24T02:42:54.378Z,10.50
2017-09-24T02:45:22.812Z,10.50
2017-09-24T02:47:51.546Z,10.60
2017-09-24T02:50:20.181Z,10.60
2017-09-24T02:52:48.773Z,10.60
2017-09-24T02:55:17.305Z,10.30
2017-09-24T02:57:46.898Z,10.30
2017-09-24T03:00:16.154Z,10.30
2017-09-24T03:02:45.655Z,10.50
2017-09-24T03:05:16.091Z,10.60
2017-09-24T03:07:46.795Z,10.70
2017-09-24T03:10:16.596Z,10.80
2017-09-24T03:12:47.411Z,10.80
2017-09-24T03:15:19.411Z,10.80
2017-09-24T03:17:48.662Z,11.00
2017-09-24T03:20:17.381Z,10.90
2017-09-24T03:22:46.957Z,10.90
2017-09-24T03:25:15.643Z,10.90
2017-09-24T03:27:44.225Z,10.90
2017-09-24T03:30:12.823Z,10.90
2017-09-24T03:32:41.258Z,10.90
2017-09-24T03:35:09.872Z,10.80
2017-09-24T03:37:38.661Z,10.80
2017-09-24T03:40:07.290Z,10.70
2017-09-24T03:42:36.718Z,10.60
2017-09-24T03:45:05.210Z,10.60
2017-09-24T03:47:34.613Z,10.60
2017-09-24T03:50:03.108Z,10.50
2017-09-24T03:52:31.608Z,10.50
2017-09-24T03:55:00.280Z,10.60
2017-09-24T03:57:28.752Z,10.60
2017-09-24T03:59:57.234Z,10.60
2017-09-24T04:02:25.816Z,10.50
2017-09-24T04:04:54.254Z,10.60
2017-09-24T04:07:22.734Z,10.50
2017-09-24T04:09:51.788Z,10.40
2017-09-24T04:12:20.463Z,10.40
2017-09-24T04:14:49.081Z,10.30
2017-09-24T04:17:18.301Z,10.30
2017-09-24T04:19:46.752Z,10.20
2017-09-24T04:22:15.238Z,10.30
2017-09-24T04:24:44.434Z,10.30
2017-09-24T04:27:13.637Z,10.10
2017-09-24T04:29:43.383Z,9.90
2017-09-24T04:32:11.811Z,9.90
2017-09-24T04:34:40.250Z,10.00
2017-09-24T04:37:08.732Z,10.00
2017-09-24T04:39:37.190Z,10.10
2017-09-24T04:42:05.638Z,10.10
2017-09-24T04:44:34.121Z,10.00
2017-09-24T04:47:03.596Z,10.10
2017-09-24T04:49:31.993Z,10.10
2017-09-24T04:52:01.187Z,10.10
2017-09-24T04:54:31.079Z,10.20
2017-09-24T04:56:59.474Z,10.20
2017-09-24T04:59:27.905Z,10.20
2017-09-24T05:01:56.288Z,10.20
2017-09-24T05:04:24.706Z,10.20
2017-09-24T05:06:53.116Z,10.20
2017-09-24T05:09:22.306Z,10.10
2017-09-24T05:11:50.730Z,10.10
2017-09-24T05:14:19.544Z,10.10
2017-09-24T05:16:48.133Z,10.00
2017-09-24T05:19:16.773Z,10.10
2017-09-24T05:21:45.500Z,10.10
2017-09-24T05:24:14.131Z,10.00
2017-09-24T05:26:43.591Z,10.20
2017-09-24T05:29:12.214Z,10.10
2017-09-24T05:31:41.414Z,10.30
2017-09-24T05:34:10.663Z,10.40
2017-09-24T05:36:39.144Z,10.40
2017-09-24T05:39:07.783Z,10.40
2017-09-24T05:41:37.308Z,10.50
2017-09-24T05:44:05.933Z,10.50
2017-09-24T05:46:34.399Z,10.60
2017-09-24T05:49:03.027Z,10.90
2017-09-24T05:51:33.963Z,11.50
2017-09-24T05:54:03.638Z,11.90
2017-09-24T05:56:32.631Z,11.90
2017-09-24T05:59:01.415Z,12.20
2017-09-24T06:01:30.714Z,12.80
2017-09-24T06:03:59.304Z,12.70
2017-09-24T06:06:27.836Z,12.90
2017-09-24T06:08:56.370Z,13.40
2017-09-24T06:11:24.959Z,13.70
2017-09-24T06:13:53.441Z,14.00
2017-09-24T06:16:21.996Z,14.40
2017-09-24T06:18:50.605Z,14.40
2017-09-24T06:21:19.548Z,14.70
2017-09-24T06:23:48.206Z,14.80
2017-09-24T06:26:16.661Z,15.00
2017-09-24T06:28:45.156Z,15.50
2017-09-24T06:31:13.627Z,15.80
2017-09-24T06:33:42.821Z,16.30
2017-09-24T06:36:11.498Z,16.30
2017-09-24T06:38:40.627Z,16.90
2017-09-24T06:41:09.925Z,17.00
2017-09-24T06:43:39.189Z,17.50
2017-09-24T06:46:07.627Z,17.50
2017-09-24T06:48:36.915Z,17.90
2017-09-24T06:51:05.515Z,18.30
2017-09-24T06:53:34.070Z,18.50
2017-09-24T06:56:03.537Z,19.40
2017-09-24T06:58:32.223Z,19.30
2017-09-24T07:01:01.017Z,19.60
2017-09-24T07:03:29.584Z,20.10
2017-09-24T07:05:58.172Z,20.40
2017-09-24T07:08:27.164Z,20.40
2017-09-24T07:10:55.957Z,20.90
2017-09-24T07:13:24.683Z,21.50
2017-09-24T07:15:54.251Z,21.70
2017-09-24T07:18:22.696Z,21.70
2017-09-24T07:20:51.171Z,21.40
2017-09-24T07:23:19.606Z,21.70
2017-09-24T07:25:48.275Z,22.50
2017-09-24T07:28:16.960Z,22.70
2017-09-24T07:30:45.433Z,22.90
2017-09-24T07:33:13.859Z,23.00
2017-09-24T07:35:43.211Z,23.30
2017-09-24T07:38:11.639Z,23.20
2017-09-24T07:40:41.054Z,23.40
2017-09-24T07:43:09.548Z,23.40
2017-09-24T07:45:37.984Z,23.10
2017-09-24T07:48:06.600Z,24.20
2017-09-24T07:50:35.081Z,24.50
2017-09-24T07:53:03.712Z,24.70
2017-09-24T07:55:32.398Z,24.50
2017-09-24T07:58:01.078Z,24.80
2017-09-24T08:00:29.717Z,24.80
2017-09-24T08:02:58.418Z,23.80
2017-09-24T08:05:27.292Z,24.80
2017-09-24T08:07:55.867Z,25.10
2017-09-24T08:10:26.710Z,25.90
2017-09-24T08:12:55.310Z,25.90
2017-09-24T08:15:23.866Z,26.00
2017-09-24T08:17:53.294Z,26.60
2017-09-24T08:20:24.139Z,26.50
2017-09-24T08:22:57.100Z,26.80
2017-09-24T08:25:25.591Z,26.90
2017-09-24T08:27:58.695Z,27.10
2017-09-24T08:30:33.532Z,26.60
2017-09-24T08:33:05.803Z,26.60
2017-09-24T08:35:35.433Z,26.80
2017-09-24T08:38:04.815Z,27.10
2017-09-24T08:40:34.303Z,27.00
2017-09-24T08:43:05.835Z,26.90
2017-09-24T08:45:36.507Z,26.60
2017-09-24T08:48:06.134Z,26.60
2017-09-24T08:50:35.887Z,27.10
2017-09-24T08:53:07.013Z,27.10
2017-09-24T08:55:37.584Z,27.00
2017-09-24T08:58:10.402Z,27.00
2017-09-24T09:00:44.540Z,27.20
2017-09-24T09:03:17.173Z,26.90
2017-09-24T09:05:51.123Z,26.90
2017-09-24T09:08:20.697Z,27.00
2017-09-24T09:10:49.525Z,27.00
2017-09-24T09:13:18.916Z,27.30
2017-09-24T09:15:48.386Z,28.70
2017-09-24T09:18:17.491Z,28.60
2017-09-24T09:20:46.131Z,29.00
2017-09-24T09:23:14.714Z,29.40
2017-09-24T09:25:43.332Z,29.10
2017-09-24T09:28:11.766Z,29.40
2017-09-24T09:30:40.980Z,28.70
2017-09-24T09:33:22.560Z,28.70
2017-09-24T09:35:51.069Z,29.00
2017-09-24T09:38:19.514Z,29.50
2017-09-24T09:40:48.357Z,28.90
2017-09-24T09:43:35.055Z,29.10
2017-09-24T09:46:03.610Z,29.70
2017-09-24T09:48:32.048Z,29.30
2017-09-24T09:51:01.353Z,28.80
2017-09-24T09:53:30.215Z,28.70
2017-09-24T09:55:58.791Z,29.60
2017-09-24T09:58:27.382Z,30.10
2017-09-24T10:00:55.865Z,30.80
2017-09-24T10:03:24.495Z,30.70
2017-09-24T10:05:53.131Z,30.70
2017-09-24T10:08:41.222Z,30.80
2017-09-24T10:11:09.888Z,31.20
2017-09-24T10:13:39.731Z,30.10
2017-09-24T10:16:08.449Z,30.00
2017-09-24T10:18:37.141Z,30.40
2017-09-24T10:21:05.827Z,30.80
2017-09-24T10:23:34.462Z,31.50
2017-09-24T10:26:02.954Z,31.50
2017-09-24T10:28:49.197Z,29.70
2017-09-24T10:31:37.035Z,28.60
2017-09-24T10:34:08.897Z,28.70
2017-09-24T10:36:40.225Z,29.20
2017-09-24T10:39:08.667Z,29.30
2017-09-24T10:41:37.820Z,30.00
2017-09-24T10:44:06.663Z,29.50
2017-09-24T10:46:35.170Z,29.00
2017-09-24T10:49:03.651Z,27.60
2017-09-24T10:51:32.292Z,27.00
2017-09-24T10:54:00.914Z,25.50
2017-09-24T10:56:29.395Z,24.30
2017-09-24T10:58:58.042Z,23.90
2017-09-24T11:01:26.943Z,23.70
2017-09-24T11:03:55.566Z,24.30
2017-09-24T11:06:24.006Z,25.50
2017-09-24T11:08:52.466Z,27.20
2017-09-24T11:11:21.788Z,28.90
2017-09-24T11:13:50.511Z,28.90
2017-09-24T11:16:18.955Z,29.50
2017-09-24T11:18:47.435Z,30.00
2017-09-24T11:21:17.051Z,30.60
2017-09-24T11:23:45.561Z,30.70
2017-09-24T11:26:14.205Z,31.10
2017-09-24T11:28:42.796Z,31.40
2017-09-24T11:31:14.588Z,30.60
2017-09-24T11:33:43.890Z,29.30
2017-09-24T11:36:12.580Z,27.90
2017-09-24T11:38:42.287Z,28.40
2017-09-24T11:41:12.483Z,29.70
2017-09-24T11:43:41.890Z,29.60
2017-09-24T11:46:10.460Z,29.60
2017-09-24T11:48:38.906Z,29.20
2017-09-24T11:51:08.837Z,27.70
2017-09-24T11:53:37.442Z,27.60
2017-09-24T11:56:05.996Z,27.60
2017-09-24T11:58:35.358Z,28.00
2017-09-24T12:01:03.799Z,28.00
2017-09-24T12:03:32.327Z,28.40
2017-09-24T12:06:01.188Z,28.40
2017-09-24T12:08:30.001Z,28.30
2017-09-24T12:10:59.461Z,29.80
2017-09-24T12:13:28.287Z,29.80
2017-09-24T12:15:57.227Z,30.10
2017-09-24T12:18:26.058Z,29.60
2017-09-24T12:20:54.956Z,29.40
2017-09-24T12:23:23.600Z,29.50
2017-09-24T12:25:52.194Z,29.90
2017-09-24T12:28:21.328Z,30.10
2017-09-24T12:30:50.551Z,30.00
2017-09-24T12:33:19.912Z,29.60
2017-09-24T12:35:49.075Z,29.60
2017-09-24T12:38:18.186Z,29.00
2017-09-24T12:40:46.685Z,29.20
2017-09-24T12:43:15.434Z,29.60
2017-09-24T12:45:44.066Z,29.00
2017-09-24T12:48:12.511Z,28.20
2017-09-24T12:50:41.117Z,27.60
2017-09-24T12:53:09.601Z,27.70
2017-09-24T12:55:39.572Z,28.00
2017-09-24T12:58:08.069Z,28.50
2017-09-24T13:00:36.578Z,28.70
2017-09-24T13:03:05.056Z,28.50
2017-09-24T13:05:33.793Z,28.20
2017-09-24T13:08:02.990Z,28.00
2017-09-24T13:10:32.211Z,27.50
2017-09-24T13:13:01.853Z,27.40
2017-09-24T13:15:30.313Z,27.00
2017-09-24T13:17:58.917Z,27.40
2017-09-24T13:20:27.413Z,27.60
2017-09-24T13:22:59.977Z,26.90
2017-09-24T13:25:29.827Z,26.00
2017-09-24T13:27:59.240Z,24.70
2017-09-24T13:30:27.952Z,24.60
2017-09-24T13:32:57.039Z,23.50
2017-09-24T13:35:26.041Z,23.10
2017-09-24T13:37:55.052Z,22.50
2017-09-24T13:40:23.845Z,22.30
2017-09-24T13:42:52.370Z,21.90
2017-09-24T13:45:20.859Z,21.90
2017-09-24T13:47:50.465Z,21.80
2017-09-24T13:50:19.383Z,21.80
2017-09-24T13:52:48.827Z,22.20
2017-09-24T13:55:17.812Z,22.40
2017-09-24T13:57:46.286Z,22.50
2017-09-24T14:00:14.718Z,22.60
2017-09-24T14:02:43.391Z,22.60
2017-09-24T14:05:12.651Z,23.20
2017-09-24T14:07:41.133Z,23.20
2017-09-24T14:10:09.849Z,23.30
2017-09-24T14:12:38.343Z,23.00
2017-09-24T14:15:06.786Z,22.90
2017-09-24T14:17:37.020Z,22.20
2017-09-24T14:20:05.529Z,22.20
2017-09-24T14:22:34.022Z,22.00
2017-09-24T14:25:02.797Z,21.90
2017-09-24T14:27:31.344Z,21.90
2017-09-24T14:29:59.850Z,21.70
2017-09-24T14:32:28.461Z,21.40
2017-09-24T14:34:56.924Z,21.30
2017-09-24T14:37:25.369Z,21.10
2017-09-24T14:39:53.840Z,20.90
2017-09-24T14:42:23.101Z,20.90
2017-09-24T14:44:51.600Z,20.60
2017-09-24T14:47:20.137Z,20.30
2017-09-24T14:49:48.898Z,20.30
2017-09-24T14:52:17.397Z,20.40
2017-09-24T14:54:46.913Z,20.50
2017-09-24T14:57:15.363Z,20.50
2017-09-24T14:59:43.849Z,20.50
2017-09-24T15:02:12.376Z,20.50
2017-09-24T15:04:40.862Z,20.40
2017-09-24T15:07:09.415Z,20.10
2017-09-24T15:09:38.037Z,20.10
2017-09-24T15:12:06.566Z,20.00
2017-09-24T15:14:35.867Z,19.80
2017-09-24T15:17:06.031Z,19.90
2017-09-24T15:19:34.714Z,19.80
2017-09-24T15:22:03.296Z,19.70
2017-09-24T15:24:32.783Z,19.50
2017-09-24T15:27:02.159Z,19.40
2017-09-24T15:29:31.378Z,19.40
2017-09-24T15:31:59.934Z,19.30
2017-09-24T15:34:28.474Z,19.40
2017-09-24T15:36:56.919Z,19.40
2017-09-24T15:39:25.487Z,19.30
2017-09-24T15:41:57.725Z,19.10
2017-09-24T15:44:27.453Z,19.10
2017-09-24T15:46:55.942Z,19.00
2017-09-24T15:49:25.182Z,19.10
2017-09-24T15:51:53.727Z,19.10
2017-09-24T15:54:23.030Z,19.00
2017-09-24T15:56:52.310Z,18.80
2017-09-24T15:59:20.852Z,18.80
2017-09-24T16:01:49.343Z,18.70
2017-09-24T16:04:17.876Z,18.70
2017-09-24T16:06:46.459Z,18.70
2017-09-24T16:09:15.691Z,18.60
2017-09-24T16:11:44.138Z,18.60
2017-09-24T16:14:13.552Z,18.40
2017-09-24T16:16:42.123Z,18.40
2017-09-24T16:19:10.915Z,18.30
2017-09-24T16:21:39.475Z,18.10
2017-09-24T16:24:07.981Z,18.00
2017-09-24T16:26:36.464Z,17.90
2017-09-24T16:29:05.092Z,17.70
2017-09-24T16:31:33.984Z,17.60
2017-09-24T16:34:03.534Z,17.50
2017-09-24T16:36:32.198Z,17.50
2017-09-24T16:39:00.825Z,17.50
2017-09-24T16:41:29.441Z,17.40
2017-09-24T16:43:58.048Z,17.40
2017-09-24T16:46:26.779Z,17.30
2017-09-24T16:48:55.255Z,17.30
2017-09-24T16:51:24.711Z,17.20
2017-09-24T16:53:53.262Z,17.20
2017-09-24T16:56:22.578Z,17.10
2017-09-24T16:58:51.124Z,17.10
2017-09-24T17:01:20.345Z,17.00
2017-09-24T17:03:48.888Z,16.90
2017-09-24T17:06:18.283Z,16.80
2017-09-24T17:08:46.798Z,16.80
2017-09-24T17:11:15.601Z,16.70
2017-09-24T17:13:44.151Z,16.70
2017-09-24T17:16:13.355Z,16.50
2017-09-24T17:18:42.664Z,16.50
2017-09-24T17:21:11.202Z,16.40
2017-09-24T17:23:39.636Z,16.40
2017-09-24T17:26:08.210Z,16.40
2017-09-24T17:28:37.251Z,16.30
2017-09-24T17:31:05.699Z,16.30
2017-09-24T17:33:34.171Z,16.30
2017-09-24T17:36:02.693Z,16.20
2017-09-24T17:38:31.132Z,16.30
2017-09-24T17:40:59.587Z,16.30
2017-09-24T17:49:21.761Z,16.10
2017-09-24T17:51:50.979Z,16.10
2017-09-24T17:54:19.496Z,16.00
2017-09-24T17:56:48.472Z,16.00
2017-09-24T17:59:16.919Z,15.80
2017-09-24T18:01:46.945Z,15.70
2017-09-24T18:04:15.641Z,15.70
2017-09-24T18:06:44.263Z,15.80
2017-09-24T18:09:12.816Z,15.90
2017-09-24T18:11:41.306Z,15.80
2017-09-24T18:14:09.958Z,15.80
2017-09-24T18:16:39.178Z,15.90
2017-09-24T18:19:07.765Z,15.90
2017-09-24T18:21:36.214Z,15.80
2017-09-24T18:24:05.779Z,15.60
2017-09-24T18:26:35.338Z,15.70
2017-09-24T18:29:03.905Z,15.60
2017-09-24T18:31:33.371Z,15.70
2017-09-24T18:34:02.014Z,15.60
2017-09-24T18:36:30.634Z,15.70
2017-09-24T18:38:59.866Z,15.50
2017-09-24T18:41:28.370Z,15.50
2017-09-24T18:43:56.893Z,15.40
2017-09-24T18:46:25.443Z,15.40
2017-09-24T18:48:54.220Z,15.50
2017-09-24T18:51:23.153Z,15.50
2017-09-24T18:53:52.447Z,15.40
2017-09-24T18:56:21.027Z,15.30
2017-09-24T18:58:49.482Z,15.30
2017-09-24T19:01:18.109Z,15.20
2017-09-24T19:03:46.597Z,15.20
2017-09-24T19:06:15.177Z,15.20
2017-09-24T19:08:43.863Z,15.10
2017-09-24T19:11:12.447Z,15.10
2017-09-24T19:13:40.915Z,15.00
2017-09-24T19:16:09.364Z,14.90
2017-09-24T19:18:37.931Z,14.80
2017-09-24T19:21:07.253Z,14.80
2017-09-24T19:23:35.749Z,14.70
2017-09-24T19:26:04.367Z,14.60
2017-09-24T19:28:32.830Z,14.60
2017-09-24T19:31:01.410Z,14.50
2017-09-24T19:33:30.407Z,14.40
2017-09-24T19:35:58.846Z,14.20
2017-09-24T19:38:27.463Z,14.10
2017-09-24T19:40:55.966Z,13.90
2017-09-24T19:43:25.140Z,13.80
2017-09-24T19:45:53.695Z,13.70
2017-09-24T19:48:22.422Z,13.80
2017-09-24T19:50:51.224Z,13.80
2017-09-24T19:53:20.668Z,13.80
2017-09-24T19:55:49.399Z,13.80
2017-09-24T19:58:18.285Z,13.80
2017-09-24T20:00:47.099Z,13.80
2017-09-24T20:03:15.977Z,13.70
2017-09-24T20:05:44.651Z,13.70
2017-09-24T20:08:13.222Z,13.60
2017-09-24T20:10:41.918Z,13.60
2017-09-24T20:13:10.617Z,13.50
2017-09-24T20:15:39.297Z,13.50
2017-09-24T20:18:08.618Z,13.50
2017-09-24T20:20:38.309Z,13.40
2017-09-24T20:23:06.894Z,13.40
2017-09-24T20:25:35.394Z,13.40
2017-09-24T20:28:03.917Z,13.30
2017-09-24T20:30:32.571Z,13.30
2017-09-24T20:33:01.986Z,13.30
2017-09-24T20:35:30.490Z,13.30
2017-09-24T20:37:59.329Z,13.20
2017-09-24T20:40:27.862Z,12.80
2017-09-24T20:42:56.579Z,12.60
2017-09-24T20:45:25.684Z,12.30
2017-09-24T20:47:54.259Z,12.30
2017-09-24T20:50:22.837Z,12.50
2017-09-24T20:52:51.525Z,12.60
2017-09-24T20:55:20.327Z,12.70
2017-09-24T20:57:49.014Z,12.60
2017-09-24T21:00:17.670Z,12.60
2017-09-24T21:02:46.201Z,12.60
2017-09-24T21:05:15.462Z,12.60
2017-09-24T21:07:45.431Z,12.50
2017-09-24T21:10:14.073Z,12.50
2017-09-24T21:12:42.685Z,12.60
2017-09-24T21:15:11.113Z,12.60
2017-09-24T21:17:39.869Z,12.60
2017-09-24T21:20:08.442Z,12.60
2017-09-24T21:22:36.967Z,12.60
2017-09-24T21:25:05.535Z,12.60
2017-09-24T21:27:34.196Z,12.60
2017-09-24T21:30:02.625Z,12.60
2017-09-24T21:32:31.370Z,12.70
2017-09-24T21:34:59.862Z,12.60
2017-09-24T21:37:28.360Z,12.60
2017-09-24T21:39:57.041Z,12.70
2017-09-24T21:42:25.834Z,12.40
2017-09-24T21:44:58.626Z,12.30
2017-09-24T21:47:27.303Z,12.30
2017-09-24T21:49:56.397Z,12.30
2017-09-24T21:52:24.976Z,12.20
2017-09-24T21:54:53.867Z,12.10
2017-09-24T21:57:22.972Z,12.00
2017-09-24T21:59:52.918Z,12.00
2017-09-24T22:02:22.124Z,12.00
2017-09-24T22:04:51.804Z,12.00
2017-09-24T22:07:21.239Z,12.00
2017-09-24T22:09:50.470Z,11.90
2017-09-24T22:12:18.902Z,12.00
2017-09-24T22:14:48.314Z,12.00
2017-09-24T22:17:17.750Z,12.00
2017-09-24T22:19:46.321Z,12.00
2017-09-24T22:22:15.249Z,11.90
2017-09-24T22:24:43.980Z,11.80
2017-09-24T22:27:13.180Z,11.80
2017-09-24T22:29:42.644Z,11.70
2017-09-24T22:32:11.332Z,11.70
2017-09-24T22:34:39.755Z,11.70
2017-09-24T22:37:08.503Z,11.70
2017-09-24T22:39:36.993Z,11.70
2017-09-24T22:42:05.563Z,11.70
2017-09-24T22:44:35.087Z,11.60
2017-09-24T22:47:04.157Z,11.70
2017-09-24T22:49:34.548Z,11.70
2017-09-24T22:52:04.945Z,11.70
2017-09-24T22:54:36.335Z,11.50
2017-09-24T22:57:06.276Z,11.50
2017-09-24T22:59:37.357Z,11.50
2017-09-24T23:02:10.285Z,11.50
2017-09-24T23:04:39.027Z,11.50
2017-09-24T23:07:07.616Z,11.40
2017-09-24T23:09:36.266Z,11.40
2017-09-24T23:12:04.691Z,11.30
2017-09-24T23:14:33.213Z,11.30
2017-09-24T23:17:02.458Z,11.30
2017-09-24T23:19:31.199Z,11.10
2017-09-24T23:21:59.823Z,11.10
2017-09-24T23:24:28.570Z,11.00
2017-09-24T23:26:57.002Z,10.90
2017-09-24T23:29:25.438Z,10.80
2017-09-24T23:31:54.401Z,10.80
2017-09-24T23:34:22.902Z,10.70
2017-09-24T23:36:52.122Z,10.70
2017-09-24T23:39:20.682Z,10.70
2017-09-24T23:41:49.266Z,10.80
2017-09-24T23:44:18.054Z,10.60
2017-09-24T23:46:46.578Z,10.60
2017-09-24T23:49:15.766Z,10.50
2017-09-24T23:51:45.121Z,10.60
2017-09-24T23:54:13.619Z,10.50
2017-09-24T23:56:42.054Z,10.60
2017-09-24T23:59:10.460Z,10.60
